createdAt,value
2023-04-23T00:00:27.116Z,99666.63
2023-04-23T00:02:58.416Z,99677.72
2023-04-23T00:05:29.714Z,99671.34
2023-04-23T00:08:02.225Z,99666.81
2023-04-23T00:10:30.972Z,99667.81
2023-04-23T00:12:59.663Z,99672.84
2023-04-23T00:15:28.724Z,99667.00
2023-04-23T00:17:56.989Z,99668.97
2023-04-23T00:20:25.448Z,99669.31
2023-04-23T00:22:55.975Z,99671.00
2023-04-23T00:25:25.289Z,99671.81
2023-04-23T00:27:59.123Z,99662.25
2023-04-23T00:30:30.869Z,99672.97
2023-04-23T00:33:03.301Z,99674.69
2023-04-23T00:35:32.400Z,99670.28
2023-04-23T00:38:04.441Z,99675.34
2023-04-23T00:40:36.228Z,99679.38
2023-04-23T00:43:11.347Z,99679.19
2023-04-23T00:45:55.880Z,99679.03
2023-04-23T00:48:28.806Z,99674.84
2023-04-23T00:51:04.443Z,99682.53
2023-04-23T00:53:39.581Z,99680.53
2023-04-23T00:56:09.921Z,99681.72
2023-04-23T00:58:43.072Z,99688.75
2023-04-23T01:01:14.342Z,99688.75
2023-04-23T01:03:44.794Z,99686.38
2023-04-23T01:06:14.251Z,99685.19
2023-04-23T01:08:45.409Z,99676.63
2023-04-23T01:11:16.456Z,99678.63
2023-04-23T01:13:45.979Z,99670.91
2023-04-23T01:16:15.031Z,99667.88
2023-04-23T01:18:44.764Z,99673.56
2023-04-23T01:21:13.844Z,99674.59
2023-04-23T01:23:44.429Z,99674.19
2023-04-23T01:26:12.826Z,99675.38
2023-04-23T01:28:41.667Z,99681.03
2023-04-23T01:31:10.986Z,99690.25
2023-04-23T01:33:44.644Z,99683.69
2023-04-23T01:36:13.491Z,99680.84
2023-04-23T01:38:43.464Z,99678.47
2023-04-23T01:41:13.828Z,99676.97
2023-04-23T01:43:43.139Z,99676.75
2023-04-23T01:46:12.217Z,99687.09
2023-04-23T01:48:40.824Z,99684.75
2023-04-23T01:51:10.461Z,99683.09
2023-04-23T01:53:38.585Z,99683.41
2023-04-23T01:56:10.131Z,99679.72
2023-04-23T01:58:38.128Z,99679.88
2023-04-23T02:01:06.997Z,99682.88
2023-04-23T02:03:35.916Z,99690.06
2023-04-23T02:06:05.244Z,99685.50
2023-04-23T02:08:33.469Z,99687.47
2023-04-23T02:11:01.784Z,99683.78
2023-04-23T02:13:34.824Z,99680.25
2023-04-23T02:16:03.033Z,99670.53
2023-04-23T02:18:31.148Z,99669.84
2023-04-23T02:20:59.972Z,99671.53
2023-04-23T02:23:28.325Z,99682.22
2023-04-23T02:25:56.468Z,99675.03
2023-04-23T02:28:24.648Z,99669.84
2023-04-23T02:30:54.200Z,99688.28
2023-04-23T02:33:22.949Z,99678.06
2023-04-23T02:35:51.860Z,99676.88
2023-04-23T02:38:20.076Z,99680.25
2023-04-23T02:40:48.224Z,99677.25
2023-04-23T02:43:20.158Z,99673.44
2023-04-23T02:45:48.378Z,99676.09
2023-04-23T02:48:21.561Z,99685.28
2023-04-23T02:50:51.063Z,99677.13
2023-04-23T02:53:27.328Z,99686.94
2023-04-23T02:55:55.700Z,99672.06
2023-04-23T02:58:23.989Z,99679.25
2023-04-23T03:00:52.252Z,99684.75
2023-04-23T03:03:21.970Z,99677.88
2023-04-23T03:05:50.416Z,99677.88
2023-04-23T03:08:18.570Z,99668.50
2023-04-23T03:10:46.894Z,99672.84
2023-04-23T03:13:15.287Z,99679.19
2023-04-23T03:15:43.710Z,99675.16
2023-04-23T03:18:12.165Z,99676.97
2023-04-23T03:20:41.622Z,99667.75
2023-04-23T03:23:09.827Z,99667.69
2023-04-23T03:25:38.281Z,99666.44
2023-04-23T03:28:06.455Z,99677.31
2023-04-23T03:30:37.678Z,99670.75
2023-04-23T03:33:05.896Z,99673.53
2023-04-23T03:35:34.112Z,99670.75
2023-04-23T03:38:03.665Z,99672.72
2023-04-23T03:40:36.499Z,99669.53
2023-04-23T03:43:06.720Z,99672.19
2023-04-23T03:45:34.853Z,99673.88
2023-04-23T03:48:03.242Z,99675.00
2023-04-23T03:50:34.486Z,99679.22
2023-04-23T03:53:04.273Z,99683.88
2023-04-23T03:55:32.670Z,99679.22
2023-04-23T03:58:01.812Z,99675.84
2023-04-23T04:00:30.124Z,99670.50
2023-04-23T04:03:00.390Z,99675.63
2023-04-23T04:05:28.837Z,99668.59
2023-04-23T04:07:59.910Z,99674.41
2023-04-23T04:10:30.229Z,99673.56
2023-04-23T04:13:01.810Z,99669.38
2023-04-23T04:15:29.988Z,99674.72
2023-04-23T04:17:58.132Z,99665.31
2023-04-23T04:20:28.762Z,99659.97
2023-04-23T04:22:57.616Z,99660.66
2023-04-23T04:25:29.043Z,99665.69
2023-04-23T04:27:58.975Z,99659.66
2023-04-23T04:30:27.574Z,99655.00
2023-04-23T04:32:56.108Z,99657.66
2023-04-23T04:35:25.364Z,99669.91
2023-04-23T04:37:54.932Z,99674.41
2023-04-23T04:40:24.150Z,99670.91
2023-04-23T04:42:53.067Z,99673.41
2023-04-23T04:45:24.244Z,99687.44
2023-04-23T04:47:52.579Z,99682.81
2023-04-23T04:50:20.908Z,99667.78
2023-04-23T04:52:49.026Z,99666.78
2023-04-23T04:55:18.051Z,99667.78
2023-04-23T04:57:46.259Z,99663.25
2023-04-23T05:00:28.575Z,99669.00
2023-04-23T05:02:58.496Z,99661.81
2023-04-23T05:05:28.247Z,99653.09
2023-04-23T05:07:59.309Z,99654.78
2023-04-23T05:10:27.380Z,99651.09
2023-04-23T05:12:55.384Z,99655.44
2023-04-23T05:15:25.159Z,99658.97
2023-04-23T05:17:59.214Z,99657.47
2023-04-23T05:20:27.536Z,99654.06
2023-04-23T05:22:55.843Z,99653.41
2023-04-23T05:25:23.895Z,99652.56
2023-04-23T05:27:53.534Z,99655.38
2023-04-23T05:30:21.643Z,99655.69
2023-04-23T05:32:51.694Z,99650.66
2023-04-23T05:35:19.739Z,99650.97
2023-04-23T05:37:47.805Z,99656.63
2023-04-23T05:40:16.036Z,99659.28
2023-04-23T05:42:44.200Z,99655.25
2023-04-23T05:45:13.140Z,99657.25
2023-04-23T05:47:41.173Z,99654.41
2023-04-23T05:50:12.651Z,99656.91
2023-04-23T05:52:40.670Z,99657.28
2023-04-23T05:55:09.846Z,99657.66
2023-04-23T05:57:38.895Z,99659.06
2023-04-23T06:00:09.880Z,99657.75
2023-04-23T06:02:38.229Z,99662.34
2023-04-23T06:05:07.626Z,99657.50
2023-04-23T06:07:37.547Z,99647.19
2023-04-23T06:10:12.790Z,99650.25
2023-04-23T06:12:42.414Z,99656.00
2023-04-23T06:15:11.571Z,99659.19
2023-04-23T06:17:39.711Z,99659.44
2023-04-23T06:20:10.896Z,99655.75
2023-04-23T06:22:40.566Z,99666.13
2023-04-23T06:25:09.628Z,99665.13
2023-04-23T06:27:37.883Z,99673.16
2023-04-23T06:30:07.103Z,99669.19
2023-04-23T06:32:37.136Z,99664.22
2023-04-23T06:35:06.392Z,99668.91
2023-04-23T06:37:34.885Z,99667.63
2023-04-23T06:40:05.070Z,99667.28
2023-04-23T06:42:33.616Z,99667.97
2023-04-23T06:45:06.289Z,99674.00
2023-04-23T06:47:34.766Z,99680.06
2023-04-23T06:50:02.984Z,99668.34
2023-04-23T06:52:31.154Z,99675.19
2023-04-23T06:54:59.205Z,99672.69
2023-04-23T06:57:30.252Z,99671.38
2023-04-23T06:59:58.371Z,99670.38
2023-04-23T07:02:27.187Z,99671.22
2023-04-23T07:04:55.409Z,99669.06
2023-04-23T07:07:25.023Z,99664.53
2023-04-23T07:09:53.127Z,99671.41
2023-04-23T07:12:21.298Z,99663.75
2023-04-23T07:14:53.675Z,99667.47
2023-04-23T07:17:22.119Z,99669.34
2023-04-23T07:19:50.809Z,99670.38
2023-04-23T07:22:19.109Z,99675.28
2023-04-23T07:24:47.811Z,99668.44
2023-04-23T07:27:16.129Z,99676.91
2023-04-23T07:29:45.368Z,99673.41
2023-04-23T07:32:16.678Z,99670.75
2023-04-23T07:34:50.263Z,99679.50
2023-04-23T07:37:18.362Z,99671.97
2023-04-23T07:39:49.199Z,99679.16
2023-04-23T07:42:17.644Z,99682.19
2023-04-23T07:44:46.389Z,99683.88
2023-04-23T07:47:19.881Z,99686.06
2023-04-23T07:49:50.409Z,99687.56
2023-04-23T07:52:18.830Z,99681.50
2023-04-23T07:54:47.412Z,99687.38
2023-04-23T07:57:16.669Z,99680.84
2023-04-23T07:59:45.001Z,99692.88
2023-04-23T08:02:18.849Z,99686.16
2023-04-23T08:04:47.147Z,99691.31
2023-04-23T08:07:15.395Z,99686.75
2023-04-23T08:09:43.959Z,99692.63
2023-04-23T08:12:18.443Z,99697.13
2023-04-23T08:14:47.541Z,99693.03
2023-04-23T08:17:15.495Z,99704.09
2023-04-23T08:19:44.979Z,99708.78
2023-04-23T08:22:13.448Z,99700.31
2023-04-23T08:24:41.704Z,99703.09
2023-04-23T08:27:10.164Z,99705.56
2023-04-23T08:29:38.510Z,99705.63
2023-04-23T08:32:06.944Z,99703.97
2023-04-23T08:34:36.455Z,99704.22
2023-04-23T08:37:08.540Z,99705.19
2023-04-23T08:39:40.807Z,99706.09
2023-04-23T08:42:16.181Z,99706.34
2023-04-23T08:44:44.229Z,99704.66
2023-04-23T08:47:13.601Z,99706.03
2023-04-23T08:49:43.968Z,99712.13
2023-04-23T08:52:18.967Z,99706.47
2023-04-23T08:54:50.965Z,99705.25
2023-04-23T08:57:19.448Z,99704.09
2023-04-23T08:59:48.809Z,99709.84
2023-04-23T09:02:18.682Z,99704.50
2023-04-23T09:04:50.759Z,99712.91
2023-04-23T09:07:21.994Z,99714.38
2023-04-23T09:09:50.198Z,99703.41
2023-04-23T09:12:18.246Z,99705.47
2023-04-23T09:14:46.400Z,99708.16
2023-04-23T09:17:14.706Z,99713.88
2023-04-23T09:19:44.278Z,99708.69
2023-04-23T09:22:12.480Z,99710.19
2023-04-23T09:24:44.577Z,99714.19
2023-04-23T09:27:12.838Z,99714.19
2023-04-23T09:29:41.817Z,99716.56
2023-04-23T09:32:11.371Z,99725.38
2023-04-23T09:34:39.591Z,99723.00
2023-04-23T09:37:11.169Z,99722.53
2023-04-23T09:39:41.663Z,99724.44
2023-04-23T09:42:13.624Z,99719.44
2023-04-23T09:44:41.641Z,99721.97
2023-04-23T09:47:12.285Z,99729.38
2023-04-23T09:49:50.775Z,99728.22
2023-04-23T09:52:21.231Z,99724.22
2023-04-23T09:54:49.939Z,99725.88
2023-04-23T09:57:19.692Z,99734.25
2023-04-23T09:59:52.888Z,99729.81
2023-04-23T10:02:33.614Z,99734.97
2023-04-23T10:05:10.436Z,99741.69
2023-04-23T10:07:50.589Z,99737.28
2023-04-23T10:10:20.385Z,99749.44
2023-04-23T10:12:54.988Z,99747.47
2023-04-23T10:15:24.954Z,99747.81
2023-04-23T10:17:53.948Z,99747.47
2023-04-23T10:20:23.854Z,99755.22
2023-04-23T10:22:55.229Z,99755.44
2023-04-23T10:25:26.475Z,99749.75
2023-04-23T10:27:57.100Z,99749.94
2023-04-23T10:30:25.463Z,99749.59
2023-04-23T10:32:55.566Z,99763.03
2023-04-23T10:35:23.910Z,99760.19
2023-04-23T10:37:52.354Z,99764.06
2023-04-23T10:40:25.465Z,99763.56
2023-04-23T10:42:55.956Z,99775.66
2023-04-23T10:45:25.636Z,99779.50
2023-04-23T10:47:56.577Z,99781.53
2023-04-23T10:50:26.702Z,99782.16
2023-04-23T10:52:57.359Z,99784.00
2023-04-23T10:55:28.280Z,99785.66
2023-04-23T10:58:08.366Z,99785.81
2023-04-23T11:00:47.829Z,99785.28
2023-04-23T11:03:32.015Z,99788.97
2023-04-23T11:06:03.493Z,99795.50
2023-04-23T11:08:33.759Z,99786.66
2023-04-23T11:11:09.341Z,99792.00
2023-04-23T11:13:53.604Z,99790.88
2023-04-23T11:16:25.858Z,99785.50
2023-04-23T11:19:05.445Z,99787.38
2023-04-23T11:22:00.104Z,99792.75
2023-04-23T11:24:37.699Z,99804.19
2023-04-23T11:27:08.092Z,99797.47
2023-04-23T11:32:10.960Z,99798.25
2023-04-23T11:34:41.292Z,99801.25
2023-04-23T11:37:12.304Z,99801.19
2023-04-23T11:39:42.406Z,99800.97
2023-04-23T11:42:30.201Z,99805.31
2023-04-23T11:55:32.521Z,99800.94
2023-04-23T11:58:42.497Z,99800.91
2023-04-23T12:01:12.779Z,99809.09
2023-04-23T12:03:41.170Z,99812.50
2023-04-23T12:06:09.461Z,99814.56
2023-04-23T12:08:43.425Z,99811.56
2023-04-23T12:11:13.694Z,99811.38
2023-04-23T12:13:43.142Z,99815.88
2023-04-23T12:18:55.253Z,99815.75
2023-04-23T12:21:25.526Z,99817.69
2023-04-23T12:23:56.276Z,99814.38
2023-04-23T12:26:25.148Z,99825.34
2023-04-23T12:28:55.605Z,99820.19
2023-04-23T12:31:25.748Z,99825.31
2023-04-23T12:34:06.719Z,99824.41
2023-04-23T12:36:41.319Z,99826.09
2023-04-23T12:39:29.494Z,99829.16
2023-04-23T12:42:02.600Z,99823.13
2023-04-23T12:44:31.985Z,99812.50
2023-04-23T12:47:03.535Z,99820.22
2023-04-23T12:49:32.898Z,99820.59
2023-04-23T12:52:02.475Z,99815.44
2023-04-23T12:54:34.129Z,99830.25
2023-04-23T12:57:03.272Z,99831.47
2023-04-23T12:59:31.837Z,99833.75
2023-04-23T13:02:02.504Z,99826.03
2023-04-23T13:04:32.878Z,99834.28
2023-04-23T13:07:01.079Z,99836.97
2023-04-23T13:09:31.939Z,99837.81
2023-04-23T13:12:00.871Z,99842.38
2023-04-23T13:14:32.457Z,99850.25
2023-04-23T13:17:01.087Z,99861.78
2023-04-23T13:19:29.352Z,99862.31
2023-04-23T13:21:57.496Z,99853.94
2023-04-23T13:24:25.894Z,99851.78
2023-04-23T13:26:57.502Z,99858.00
2023-04-23T13:29:27.444Z,99869.28
2023-04-23T13:31:56.556Z,99868.66
2023-04-23T13:34:25.191Z,99868.81
2023-04-23T13:36:53.673Z,99866.94
2023-04-23T13:39:23.933Z,99865.97
2023-04-23T13:42:06.254Z,99870.72
2023-04-23T13:44:38.294Z,99874.13
2023-04-23T13:47:06.743Z,99873.66
2023-04-23T13:49:35.225Z,99881.03
2023-04-23T13:52:06.990Z,99881.09
2023-04-23T13:54:35.809Z,99881.97
2023-04-23T13:57:04.449Z,99887.03
2023-04-23T13:59:33.136Z,99895.44
2023-04-23T14:02:02.841Z,99904.00
2023-04-23T14:04:30.999Z,99908.50
2023-04-23T14:07:02.125Z,99908.59
2023-04-23T14:09:30.601Z,99906.72
2023-04-23T14:11:58.621Z,99914.25
2023-04-23T14:14:27.495Z,99915.72
2023-04-23T14:16:55.915Z,99921.97
2023-04-23T14:19:25.942Z,99921.25
2023-04-23T14:21:54.202Z,99925.03
2023-04-23T14:24:24.754Z,99919.75
2023-04-23T14:26:53.002Z,99915.97
2023-04-23T14:29:32.613Z,99926.88
2023-04-23T14:32:03.984Z,99937.91
2023-04-23T14:34:35.073Z,99931.28
2023-04-23T14:37:03.216Z,99931.63
2023-04-23T14:39:31.604Z,99927.44
2023-04-23T14:42:00.015Z,99931.81
2023-04-23T14:44:37.369Z,99936.25
2023-04-23T14:47:08.272Z,99941.00
2023-04-23T14:49:37.771Z,99935.47
2023-04-23T14:54:48.768Z,99943.06
2023-04-23T14:57:16.820Z,99934.25
2023-04-23T14:59:44.990Z,99948.50
2023-04-23T15:02:13.160Z,99943.56
2023-04-23T15:04:43.424Z,99948.47
2023-04-23T15:07:11.783Z,99959.41
2023-04-23T15:09:39.851Z,99964.47
2023-04-23T15:12:28.886Z,99977.75
2023-04-23T15:14:57.418Z,99970.75
2023-04-23T15:17:28.461Z,99969.09
2023-04-23T15:20:00.500Z,99967.47
2023-04-23T15:22:31.460Z,99971.22
2023-04-23T15:24:59.542Z,99964.97
2023-04-23T15:27:40.147Z,99976.88
2023-04-23T15:30:14.318Z,99985.13
2023-04-23T15:32:43.460Z,99979.44
2023-04-23T15:35:33.300Z,99989.25
2023-04-23T15:44:49.014Z,99999.88
2023-04-23T15:58:42.723Z,100029.44
2023-04-23T16:01:20.080Z,100029.72
2023-04-23T16:04:07.876Z,100029.44
2023-04-23T16:06:52.354Z,100026.59
2023-04-23T16:09:22.073Z,100039.19
2023-04-23T16:11:50.329Z,100040.19
2023-04-23T16:14:19.904Z,100039.56
2023-04-23T16:16:48.553Z,100037.13
2023-04-23T16:19:18.762Z,100032.72
2023-04-23T16:21:47.310Z,100031.06
2023-04-23T16:24:17.530Z,100032.66
2023-04-23T16:26:45.745Z,100024.56
2023-04-23T16:29:26.680Z,100021.75
2023-04-23T16:31:57.319Z,100032.47
2023-04-23T16:34:28.155Z,100042.50
2023-04-23T16:37:27.764Z,100032.28
2023-04-23T16:40:09.130Z,100046.09
2023-04-23T16:42:58.289Z,100041.09
2023-04-23T16:45:29.129Z,100061.53
2023-04-23T16:50:49.165Z,100069.00
2023-04-23T16:53:27.560Z,100074.09
2023-04-23T16:56:20.686Z,100074.72
2023-04-23T17:01:34.919Z,100061.91
2023-04-23T17:04:10.481Z,100056.53
2023-04-23T17:06:43.726Z,100067.84
2023-04-23T17:09:12.344Z,100055.31
2023-04-23T17:11:45.971Z,100077.44
2023-04-23T17:14:14.123Z,100069.91
2023-04-23T17:19:28.086Z,100076.19
2023-04-23T17:21:58.093Z,100073.72
2023-04-23T17:24:29.918Z,100071.78
2023-04-23T18:18:08.018Z,100113.06
2023-04-23T18:51:40.761Z,100174.50
2023-04-23T19:10:44.488Z,100196.09
2023-04-23T19:13:15.580Z,100209.38
2023-04-23T19:15:43.774Z,100208.16
2023-04-23T19:18:13.157Z,100208.91
2023-04-23T19:20:44.573Z,100205.25
2023-04-23T19:23:12.910Z,100201.97
2023-04-23T19:25:42.887Z,100217.34
2023-04-23T19:28:14.043Z,100220.75
2023-04-23T19:30:42.520Z,100227.00
2023-04-23T19:33:12.501Z,100238.97
2023-04-23T19:35:41.685Z,100245.44
2023-04-23T19:38:11.231Z,100259.78
2023-04-23T19:40:41.742Z,100255.66
2023-04-23T19:43:12.872Z,100259.06
2023-04-23T19:45:46.964Z,100264.50
2023-04-23T19:48:17.117Z,100257.38
2023-04-23T19:50:45.769Z,100269.72
2023-04-23T19:53:14.943Z,100275.69
2023-04-23T19:55:47.111Z,100290.59
2023-04-23T19:58:19.401Z,100290.41
2023-04-23T20:00:47.820Z,100296.63
2023-04-23T20:03:16.489Z,100305.78
2023-04-23T20:05:46.173Z,100314.84
2023-04-23T20:08:25.956Z,100316.63
2023-04-23T20:10:54.807Z,100320.19
2023-04-23T20:13:26.137Z,100321.34
2023-04-23T20:15:57.269Z,100329.69
2023-04-23T20:18:29.271Z,100329.97
2023-04-23T20:20:57.350Z,100333.06
2023-04-23T20:23:26.522Z,100328.88
2023-04-23T20:26:02.752Z,100336.22
2023-04-23T20:28:32.651Z,100341.69
2023-04-23T20:31:00.893Z,100346.50
2023-04-23T20:33:33.323Z,100347.38
2023-04-23T20:36:04.120Z,100348.50
2023-04-23T20:38:33.297Z,100353.84
2023-04-23T20:41:11.131Z,100359.63
2023-04-23T20:43:40.757Z,100366.25
2023-04-23T20:46:10.585Z,100362.75
2023-04-23T20:48:39.545Z,100374.88
2023-04-23T20:51:08.145Z,100391.66
2023-04-23T20:53:36.398Z,100389.13
2023-04-23T20:56:04.899Z,100387.59
2023-04-23T20:58:32.944Z,100393.63
2023-04-23T21:01:08.916Z,100385.75
2023-04-23T21:03:38.096Z,100381.34
2023-04-23T21:06:12.697Z,100386.72
2023-04-23T21:08:43.976Z,100388.97
2023-04-23T21:11:16.467Z,100388.13
2023-04-23T21:13:46.062Z,100393.63
2023-04-23T21:16:15.799Z,100392.38
2023-04-23T21:18:51.539Z,100390.13
2023-04-23T21:21:19.902Z,100389.69
2023-04-23T21:23:50.665Z,100399.28
2023-04-23T21:26:21.846Z,100398.56
2023-04-23T21:29:13.177Z,100407.59
2023-04-23T21:32:16.752Z,100399.28
2023-04-23T21:34:51.837Z,100402.09
2023-04-23T21:40:19.078Z,100407.59
2023-04-23T21:43:07.396Z,100409.88
2023-04-23T21:45:37.585Z,100407.59
2023-04-23T21:48:14.226Z,100401.25
2023-04-23T21:50:56.451Z,100404.09
2023-04-23T21:53:29.654Z,100420.28
2023-04-23T21:55:59.345Z,100415.22
2023-04-23T21:58:27.973Z,100399.28
2023-04-23T22:00:57.159Z,100409.13
2023-04-23T22:03:35.347Z,100404.50
2023-04-23T22:06:11.589Z,100409.56
2023-04-23T22:09:02.547Z,100418.00
2023-04-23T22:12:00.842Z,100422.81
2023-04-23T22:14:38.906Z,100415.06
2023-04-23T22:17:08.057Z,100424.50
2023-04-23T22:19:59.372Z,100423.78
2023-04-23T22:22:34.316Z,100414.78
2023-04-23T22:25:12.898Z,100417.16
2023-04-23T22:27:42.593Z,100429.59
2023-04-23T22:30:14.764Z,100429.59
2023-04-23T22:32:42.975Z,100443.69
2023-04-23T22:35:18.724Z,100442.97
2023-04-23T22:37:47.460Z,100451.00
2023-04-23T22:40:16.835Z,100448.44
2023-04-23T22:42:45.890Z,100451.84
2023-04-23T22:45:14.860Z,100452.69
2023-04-23T22:47:43.806Z,100447.88
2023-04-23T22:50:14.692Z,100458.75
2023-04-23T22:52:43.853Z,100458.06
2023-04-23T22:55:12.984Z,100446.50
2023-04-23T22:57:43.103Z,100448.19
2023-04-23T23:00:13.343Z,100461.75
2023-04-23T23:02:41.686Z,100446.50
2023-04-23T23:05:11.594Z,100447.63
2023-04-23T23:07:48.658Z,100453.97
2023-04-23T23:10:16.812Z,100448.47
2023-04-23T23:12:45.492Z,100445.94
2023-04-23T23:15:14.017Z,100447.03
2023-04-23T23:17:43.988Z,100454.25
2023-04-23T23:20:20.387Z,100452.56
2023-04-23T23:22:50.271Z,100446.78
2023-04-23T23:25:18.725Z,100452.81
2023-04-23T23:27:46.923Z,100460.44
2023-04-23T23:30:16.058Z,100461.00
2023-04-23T23:32:45.291Z,100467.06
2023-04-23T23:35:14.910Z,100459.59
2023-04-23T23:37:43.322Z,100459.19
2023-04-23T23:40:13.905Z,100467.78
2023-04-23T23:42:42.622Z,100462.28
2023-04-23T23:45:11.863Z,100474.84
2023-04-23T23:47:40.505Z,100471.47
2023-04-23T23:50:10.669Z,100466.09
2023-04-23T23:52:39.271Z,100464.53
2023-04-23T23:55:08.343Z,100468.47
2023-04-23T23:57:40.398Z,100463.53
